Flight Track Log - Related Links

Times and Time Zones

All times are in EDT time to prevent confusion due to time zone crossing. See the SWA2403 flight status page for this flight to view local times or setup timezone preferences in your user account.

Time Position Orientation Groundspeed Altitude Reporting Facility
EDT Latitude Longitude Course Direction KTS MPH feet Rate Location/Type
Tue 12:12:21 AM 38.8653 -121.6094 357° North 249 287 8,800  Level Oakland Center
Tue 12:13:22 AM 38.9358 -121.6483 337° Northwest 274 315 11,600 3,000 Climbing Oakland Center
Tue 12:14:23 AM 39.0269 -121.6697 350° North 328 377 14,900 3,344 Climbing Oakland Center
Tue 12:15:24 AM 39.1233 -121.6883 351° North 346 398 18,400 3,541 Climbing Oakland Center
Tue 12:16:25 AM 39.2194 -121.7072 351° North 347 399 22,100 3,148 Climbing Oakland Center
Tue 12:17:26 AM 39.3156 -121.7275 351° North 349 402 24,800 2,311 Climbing Oakland Center
Tue 12:18:27 AM 39.4175 -121.7467 352° North 366 421 26,800 2,066 Climbing Oakland Center
Tue 12:19:28 AM 39.5261 -121.7683 351° North 384 442 29,000 1,967 Climbing Oakland Center
Tue 12:20:29 AM 39.6353 -121.7903 351° North 396 456 30,800 1,672 Climbing Oakland Center
Tue 12:21:30 AM 39.7458 -121.8122 351° North 402 463 32,400 1,587 Climbing Oakland Center
Tue 12:22:30 AM 39.8614 -121.8356 351° North 418 481 34,000 1,785 Climbing Oakland Center
Tue 12:23:31 AM 39.9972 -121.8625 351° North 416 479 36,000 1,574 Climbing Oakland Center
Tue 12:24:32 AM 40.1086 -121.8850 351° North 411 473 37,200 984 Climbing Oakland Center
Tue 12:25:33 AM 40.2219 -121.9072 351° North 416 479 38,000 393 Climbing Oakland Center
Tue 12:26:34 AM 40.3353 -121.9306 351° North 417 480 38,000  Level Oakland Center
Tue 12:27:35 AM 40.4497 -121.9539 351° North 420 483 38,000  Level Oakland Center
Tue 12:28:36 AM 40.5642 -121.9769 351° North 420 483 38,000  Level Oakland Center
Tue 12:29:37 AM 40.6764 -122.0006 351° North 411 473 38,000  Level Oakland Center
Tue 12:30:38 AM 40.7900 -122.0233 351° North 415 478 38,000  Level Oakland Center
Tue 12:31:39 AM 40.9017 -122.0461 351° North 410 472 38,000  Level Oakland Center
Tue 12:32:40 AM 41.0361 -122.0739 351° North 410 472 38,000  Level Oakland Center
Tue 12:33:36 AM 41.1275 -122.0967 349° North 412 474 38,000  Level Seattle Center
Tue 12:34:37 AM 41.2344 -122.1192 351° North 410 472 38,000  Level Seattle Center
Tue 12:35:43 AM 41.3706 -122.1472 351° North 412 474 38,000  Level Oakland Center
Tue 12:36:38 AM 41.4614 -122.1656 351° North 412 474 38,000  Level Seattle Center
Tue 12:37:38 AM 41.5750 -122.1886 351° North 413 475 38,000  Level Seattle Center
Tue 12:38:39 AM 41.7111 -122.2175 351° North 413 475 38,000  Level Seattle Center
Tue 12:39:40 AM 41.8256 -122.2414 351° North 412 474 38,000  Level Seattle Center
Tue 12:40:40 AM 41.9167 -122.2594 352° North 413 475 38,000  Level Seattle Center
Tue 12:41:41 AM 42.0317 -122.2836 351° North 414 476 38,000  Level Seattle Center
Tue 12:42:41 AM 42.1472 -122.3081 351° North 415 478 38,000  Level Seattle Center
Tue 12:43:42 AM 42.2614 -122.3308 352° North 414 476 38,000  Level Seattle Center
Tue 12:44:43 AM 42.3750 -122.3561 351° North 412 474 38,000  Level Seattle Center
Tue 12:45:43 AM 42.4883 -122.3808 351° North 411 473 38,000  Level Seattle Center
Tue 12:46:44 AM 42.6233 -122.4097 351° North 409 471 38,000  Level Seattle Center
Tue 12:47:45 AM 42.7353 -122.4344 351° North 409 471 38,000  Level Seattle Center
Tue 12:48:45 AM 42.8467 -122.4592 351° North 411 473 38,000  Level Seattle Center
Tue 12:49:46 AM 42.9592 -122.4842 351° North 411 473 38,000  Level Seattle Center
Tue 12:50:46 AM 43.0725 -122.5089 351° North 413 475 38,000  Level Seattle Center
Tue 12:51:47 AM 43.1853 -122.5342 351° North 413 475 38,000  Level Seattle Center
Tue 12:52:48 AM 43.2989 -122.5592 351° North 415 478 38,000  Level Seattle Center
Tue 12:53:48 AM 43.4119 -122.5839 351° North 414 476 38,000  Level Seattle Center
Tue 12:54:49 AM 43.5239 -122.6086 351° North 409 471 38,000  Level Seattle Center
Tue 12:55:49 AM 43.6383 -122.6347 351° North 416 479 38,000 -347 Level Seattle Center
Tue 12:56:50 AM 43.7508 -122.6608 350° North 415 478 37,300 -787 Descending Seattle Center
Tue 12:57:51 AM 43.8639 -122.6875 350° North 414 476 36,400 -942 Descending Seattle Center
Tue 12:58:51 AM 43.9761 -122.7122 351° North 412 474 35,400 -1,636 Descending Seattle Center
Tue 12:59:52 AM 44.0850 -122.7372 351° North 404 465 33,100 -2,331 Descending Seattle Center
Tue 01:00:52 AM 44.1925 -122.7494 355° North 393 452 30,700 -2,678 Descending Seattle Center
Tue 01:01:53 AM 44.3153 -122.7375 North 371 427 27,700 -3,000 Descending Seattle Center
Tue 01:02:54 AM 44.4078 -122.7278 North 352 405 24,600 -2,430 Descending Seattle Center
Tue 01:03:54 AM 44.5017 -122.7169 North 343 395 22,800 -1,983 Descending Seattle Center
Tue 01:04:55 AM 44.5933 -122.7094 North 335 386 20,600 -2,132 Descending Seattle Center
Tue 01:05:55 AM 44.6844 -122.7008 North 332 382 18,500 -2,019 Descending Seattle Center
Tue 01:06:42 AM 44.7553 -122.6925 North 325 374 17,000 -2,083 Descending Seattle Center
Tue 01:07:56 AM 44.8639 -122.6819 North 329 379 14,300 -2,211 Descending Seattle Center
Tue 01:08:55 AM 44.9569 -122.6722 North 329 379 12,100 -1,400 Descending Seattle Center
Tue 01:09:56 AM 45.0503 -122.6622 North 305 351 11,500 -1,086 Descending Seattle Center
Tue 01:10:51 AM 45.1175 -122.6839 347° North 272 313 10,000 -1,736 Descending Seattle Center
Tue 01:11:57 AM 45.1958 -122.7075 348° North 260 299 8,000 -1,636 Descending Seattle Center
Tue 01:12:52 AM 45.2617 -122.7331 345° North 265 305 6,700 -1,357 Descending Seattle Center
Tue 01:13:52 AM 45.3308 -122.7542 348° North 253 291 5,400 -1,339 Descending Seattle Center
Tue 01:14:53 AM 45.3986 -122.7789 346° North 247 284 4,000 -1,241 Descending Seattle Center
Tue 01:15:48 AM 45.4589 -122.7978 348° North 243 280 3,000 -522 Descending Seattle Center
Tue 01:16:48 AM 45.5233 -122.8178 348° North 235 270 3,000 -99 Level Seattle Center
Tue 01:17:49 AM 45.5828 -122.8000 12° North 211 243 2,800 -397 Descending Seattle Center
Tue 01:18:49 AM 45.6306 -122.7683 25° Northeast 172 198 2,200 -520 Descending Seattle Center
Tue 01:19:56 AM 45.6350 -122.7047 84° East 145 167 1,700 -627 Descending Seattle Center
Tue 01:21:03 AM 45.6144 -122.6450 116° Southeast 143 165 800 -472 Descending Seattle Center
Tue 01:22:03 AM 45.5972 -122.5997 119° Southeast 147 169 700 -100 Descending Seattle Center

Login

Don't have an account? Register now (free) for customized features, flight alerts, and more!